Disclaimer

Please do not use the information listed here in-flight or in-navigation, as they are not provided to us by the airports but are provided by volunteers, so they might be outdated.

Search


Regions


Airport information page

Radio informations:
Tower (TWR) - 123.7 MHz

Airport informations:
Latitude: 50° 36' 25.71" N
Longitude: 026° 08' 29.84" E
Elevation: 755 feet - 230 meters
Operating hours: Remarks
Operating agency: Civil government, landing fees and diplomatic clearance may be required
Timezone: UTC+2(+3DT) - Last Sunday in March to last Sunday in October
Fuel: N/A

Runway information:
05/23 - 2150 x 65 feet< - >655 x 20 meters
12/30 - 8615 x 138 feet< - >2626 x 42 meters

Recent METARs:
UKLR 171500Z 03003MPS CAVOK M00/M07 Q1036 R11/090070 NOSIG
UKLR 171500Z 03003MPS CAVOK M00/M07 Q1036 R11/090070 NOSIG

Airport on the map: